createdAt,value
2024-02-15T05:09:27.717Z,101270.34
2024-02-15T05:12:30.797Z,101270.34
2024-02-15T05:15:34.150Z,101260.09
2024-02-15T05:18:36.875Z,101267.19
2024-02-15T05:21:39.392Z,101264.81
2024-02-15T05:24:41.793Z,101264.66
2024-02-15T05:27:45.410Z,101274.97
2024-02-15T05:30:47.836Z,101274.47
2024-02-15T05:33:54.740Z,101278.19
2024-02-15T05:36:57.336Z,101268.25
2024-02-15T05:39:59.471Z,101276.34
2024-02-15T05:43:03.281Z,101285.28
2024-02-15T05:46:07.700Z,101270.22
2024-02-15T05:49:16.405Z,101280.41
2024-02-15T05:52:19.562Z,101286.06
2024-02-15T05:55:22.127Z,101282.62
2024-02-15T05:58:24.939Z,101291.94
2024-02-15T06:01:27.437Z,101286.84
2024-02-15T06:04:31.009Z,101293.75
2024-02-15T06:07:33.289Z,101292.75
2024-02-15T06:10:35.754Z,101303.75
2024-02-15T06:13:37.901Z,101302.59
2024-02-15T06:16:46.144Z,101293.91
2024-02-15T06:19:48.370Z,101307.91
2024-02-15T06:22:53.019Z,101315.44
2024-02-15T06:26:01.948Z,101304.97
2024-02-15T06:29:22.822Z,101311.09
2024-02-15T06:32:43.919Z,101321.81
2024-02-15T06:36:04.946Z,101315.25
2024-02-15T06:39:25.737Z,101319.06
2024-02-15T06:42:30.865Z,101319.44
2024-02-15T06:45:33.296Z,101317.34
2024-02-15T06:48:36.125Z,101326.28
2024-02-15T06:51:38.664Z,101323.69
2024-02-15T06:54:46.602Z,101328.84
2024-02-15T06:57:52.000Z,101336.69
2024-02-15T07:00:56.142Z,101325.75
2024-02-15T07:03:59.816Z,101331.47
2024-02-15T07:07:07.669Z,101337.94
2024-02-15T07:10:15.347Z,101330.72
2024-02-15T07:13:33.255Z,101340.44
2024-02-15T07:16:39.129Z,101340.62
2024-02-15T07:19:50.822Z,101344.66
2024-02-15T07:22:57.263Z,101347.59
2024-02-15T07:26:01.915Z,101347.88
2024-02-15T07:29:12.391Z,101363.78
2024-02-15T07:32:19.672Z,101355.25
2024-02-15T07:35:27.510Z,101353.00
2024-02-15T07:38:37.071Z,101348.91
2024-02-15T07:41:45.354Z,101352.00
2024-02-15T07:44:51.354Z,101349.81
2024-02-15T07:47:55.175Z,101351.66
2024-02-15T07:51:00.580Z,101343.25
2024-02-15T07:54:06.538Z,101347.19
2024-02-15T07:57:12.665Z,101343.34
2024-02-15T08:00:18.200Z,101341.44
2024-02-15T08:03:22.194Z,101349.88
2024-02-15T08:06:30.129Z,101342.94
2024-02-15T08:09:34.050Z,101354.25
2024-02-15T08:12:37.127Z,101347.69
2024-02-15T08:15:41.323Z,101351.78
2024-02-15T08:18:48.320Z,101347.00
2024-02-15T08:21:53.043Z,101340.97
2024-02-15T08:24:59.963Z,101345.59
2024-02-15T08:28:06.972Z,101346.88
2024-02-15T08:31:12.361Z,101352.53
2024-02-15T08:34:15.860Z,101347.00
2024-02-15T08:37:19.605Z,101348.31
2024-02-15T08:40:26.684Z,101344.16
2024-02-15T08:43:29.228Z,101349.22
2024-02-15T08:46:32.314Z,101336.16
2024-02-15T08:49:36.146Z,101335.91
2024-02-15T08:52:40.414Z,101338.63
2024-02-15T08:55:43.166Z,101345.97
2024-02-15T08:58:46.361Z,101348.53
2024-02-15T09:01:48.500Z,101361.69
2024-02-15T09:04:51.064Z,101362.44
2024-02-15T09:07:53.347Z,101365.69
2024-02-15T09:10:55.881Z,101367.25
2024-02-15T09:13:58.122Z,101360.47
2024-02-15T09:17:10.934Z,101355.69
2024-02-15T09:20:22.534Z,101363.50
2024-02-15T09:23:25.239Z,101361.91
2024-02-15T09:26:29.053Z,101359.37
2024-02-15T09:29:33.632Z,101358.91
2024-02-15T09:32:37.061Z,101366.03
2024-02-15T09:35:39.885Z,101358.81
2024-02-15T09:38:44.719Z,101367.34
2024-02-15T09:41:47.305Z,101366.56
2024-02-15T09:44:49.484Z,101359.63
2024-02-15T09:47:54.649Z,101366.69
2024-02-15T09:50:59.787Z,101364.00
2024-02-15T09:54:03.042Z,101355.50
2024-02-15T09:57:06.956Z,101353.72
2024-02-15T10:00:14.586Z,101364.03
2024-02-15T10:03:24.331Z,101363.75
2024-02-15T10:06:28.414Z,101365.16
2024-02-15T10:09:32.008Z,101354.44
2024-02-15T10:12:40.329Z,101354.81
2024-02-15T10:15:42.789Z,101352.66
2024-02-15T10:18:46.077Z,101361.81
2024-02-15T10:21:49.853Z,101356.38
2024-02-15T10:24:52.083Z,101347.56
2024-02-15T10:28:03.931Z,101357.25
2024-02-15T10:31:09.369Z,101359.97
2024-02-15T10:34:15.416Z,101347.59
2024-02-15T10:37:18.411Z,101354.59
2024-02-15T10:40:21.906Z,101350.25
2024-02-15T10:43:24.183Z,101349.75
2024-02-15T10:46:26.897Z,101348.69
2024-02-15T10:49:29.328Z,101349.75
2024-02-15T10:52:33.440Z,101354.34
2024-02-15T10:55:41.742Z,101341.16
2024-02-15T10:58:50.689Z,101343.03
2024-02-15T11:01:59.878Z,101334.16
2024-02-15T11:05:13.154Z,101343.31
2024-02-15T11:08:18.067Z,101338.75
2024-02-15T11:11:21.677Z,101334.72
2024-02-15T11:14:27.222Z,101339.53
2024-02-15T11:17:58.666Z,101339.00
2024-02-15T11:21:01.472Z,101330.69
2024-02-15T11:24:29.025Z,101333.91
2024-02-15T11:27:33.008Z,101329.88
2024-02-15T11:30:35.720Z,101329.03
2024-02-15T11:33:38.325Z,101323.12
2024-02-15T11:36:43.898Z,101328.47
2024-02-15T11:39:48.094Z,101324.50
2024-02-15T11:42:54.395Z,101329.84
2024-02-15T11:45:59.986Z,101325.81
2024-02-15T11:49:04.840Z,101327.94
2024-02-15T11:52:12.436Z,101315.63
2024-02-15T11:55:20.277Z,101305.63
2024-02-15T11:58:30.114Z,101308.34
2024-02-15T12:01:52.654Z,101307.47
2024-02-15T12:05:13.965Z,101311.78
2024-02-15T12:08:34.959Z,101308.50
2024-02-15T12:11:56.548Z,101300.75
2024-02-15T12:15:19.143Z,101306.34
2024-02-15T12:18:44.423Z,101306.09
2024-02-15T12:21:48.092Z,101294.81
2024-02-15T12:25:01.465Z,101295.63
2024-02-15T12:28:05.478Z,101289.06
2024-02-15T12:31:15.162Z,101282.38
2024-02-15T12:34:21.867Z,101288.25
2024-02-15T12:37:24.849Z,101286.69
2024-02-15T12:40:35.108Z,101277.25
2024-02-15T12:43:38.169Z,101272.84
2024-02-15T12:46:41.365Z,101273.44
2024-02-15T12:49:43.858Z,101269.34
2024-02-15T12:52:50.756Z,101263.16
2024-02-15T12:55:55.959Z,101260.66
2024-02-15T12:58:58.059Z,101264.16
2024-02-15T13:02:00.615Z,101266.06
2024-02-15T13:05:04.127Z,101263.66
2024-02-15T13:08:11.507Z,101260.41
2024-02-15T13:11:14.314Z,101260.66
2024-02-15T13:14:16.925Z,101267.63
2024-02-15T13:17:19.113Z,101263.78
2024-02-15T13:20:36.677Z,101265.03
2024-02-15T13:23:40.216Z,101257.28
2024-02-15T13:26:42.805Z,101271.84
2024-02-15T13:29:46.967Z,101260.00
2024-02-15T13:32:50.106Z,101259.44
2024-02-15T13:35:52.400Z,101259.28
2024-02-15T13:38:57.067Z,101258.19
2024-02-15T13:41:59.570Z,101251.41
2024-02-15T13:45:03.095Z,101245.56
2024-02-15T13:48:06.442Z,101246.28
2024-02-15T13:51:10.342Z,101244.38
2024-02-15T13:54:12.857Z,101247.06
2024-02-15T13:57:15.975Z,101244.88
2024-02-15T14:00:23.075Z,101237.91
2024-02-15T14:03:26.470Z,101238.19
2024-02-15T14:06:29.312Z,101241.31
2024-02-15T14:09:31.893Z,101244.59
2024-02-15T14:12:35.403Z,101240.34
2024-02-15T14:15:39.310Z,101240.09
2024-02-15T14:18:45.923Z,101235.62
2024-02-15T14:21:48.674Z,101239.66
2024-02-15T14:24:52.457Z,101237.72
2024-02-15T14:27:55.769Z,101237.50
2024-02-15T14:31:16.436Z,101238.34
2024-02-15T14:34:19.062Z,101235.91
2024-02-15T14:37:23.420Z,101234.31
2024-02-15T14:40:27.502Z,101230.75
2024-02-15T14:43:30.361Z,101239.16
2024-02-15T14:46:36.563Z,101236.47
2024-02-15T14:49:38.735Z,101238.88
2024-02-15T14:52:41.270Z,101240.56
2024-02-15T14:55:50.187Z,101247.00
2024-02-15T14:58:52.919Z,101237.03
2024-02-15T15:02:02.366Z,101234.63
2024-02-15T15:05:24.595Z,101233.75
2024-02-15T15:08:45.457Z,101235.91
2024-02-15T15:12:06.330Z,101231.91
2024-02-15T15:15:09.206Z,101242.16
2024-02-15T15:18:12.390Z,101235.69
2024-02-15T15:21:17.174Z,101234.59
2024-02-15T15:24:19.736Z,101235.66
2024-02-15T15:27:21.933Z,101232.47
2024-02-15T15:30:24.414Z,101231.66
2024-02-15T15:33:26.639Z,101233.50
2024-02-15T15:36:29.274Z,101235.19
2024-02-15T15:39:34.207Z,101240.00
2024-02-15T15:42:36.793Z,101231.97
2024-02-15T15:45:38.946Z,101229.81
2024-02-15T15:48:41.589Z,101233.28
2024-02-15T15:51:44.772Z,101233.28
2024-02-15T15:54:48.073Z,101233.84
2024-02-15T15:57:50.931Z,101239.19
2024-02-15T16:00:53.403Z,101234.38
2024-02-15T16:03:56.142Z,101238.38
2024-02-15T16:06:58.373Z,101237.03
2024-02-15T16:10:00.811Z,101234.06
2024-02-15T16:13:03.122Z,101236.19
2024-02-15T16:16:06.768Z,101233.25
2024-02-15T16:19:09.020Z,101236.25
2024-02-15T16:22:11.713Z,101230.88
2024-02-15T16:25:14.579Z,101234.34
2024-02-15T16:28:17.164Z,101235.72
2024-02-15T16:31:19.322Z,101237.06
2024-02-15T16:34:22.024Z,101240.00
2024-02-15T16:37:27.399Z,101237.88
2024-02-15T16:40:29.857Z,101236.28
2024-02-15T16:43:32.465Z,101249.44
2024-02-15T16:46:35.102Z,101259.41
2024-02-15T16:49:38.126Z,101256.44
2024-02-15T16:52:43.587Z,101259.16
2024-02-15T16:55:47.192Z,101258.84
2024-02-15T16:58:50.042Z,101264.53
2024-02-15T17:01:53.982Z,101265.88
2024-02-15T17:04:56.541Z,101270.19
2024-02-15T17:07:59.434Z,101273.94
2024-02-15T17:11:01.947Z,101281.19
2024-02-15T17:14:04.461Z,101282.03
2024-02-15T17:17:07.172Z,101281.47
2024-02-15T17:20:16.181Z,101283.09
2024-02-15T17:23:18.731Z,101295.97
